LGAD/PYR METAR and TAF weather

Enter ICAO airport designator
Station Type Date Time Source
LGAD METAR 2021/09/20 03:50 UTC NOAA

LGAD 200350Z 14004KT 9999 FEW025 22/20 Q1014


Station Type Date Time Source
LGAD Decoded METAR 2021/09/20 03:50 UTC NOAA

Andravida Airport , Greece (LGAD) 37-55N 021-17E 14M
Sep 19, 2021 - 11:50 PM EDT / 2021.09.20 0350 UTC
Wind: from the SE (140 degrees) at 5 MPH (4 KT):0
Visibility: greater than 7 mile(s):0
Sky conditions: mostly clear
Temperature: 71 F (22 C)
Dew Point: 68 F (20 C)
Relative Humidity: 88%
Pressure (altimeter): 29.94 in. Hg (1014 hPa)
ob: LGAD 200350Z 14004KT 9999 FEW025 22/20 Q1014
cycle: 4

Station Type Date Time Source
LGAD TAF 2020/03/18 09:39 UTC NOAA

TAF TAF LGAD 180800Z 1809/1821 30006KT 9999 FEW030
BECMG 1816/1818 07010KT

Example: see airport list